KPTK

Oakland County International Airport

Pontiac, Michigan, USA
METAR KPTK 191653Z VRB04KT 10SM SCT030TCU BKN250 26/18 A3004 RMK AO2 SLP164 TCU NE T02560183
Observed Flight Rules
Aug-19 @ 16:53 UTC (19 minutes ago) Visual Flight Rules
Wind Visibility Clouds
Variable at 4 knots 10 miles
  • Scattered at 3,000' AGL
  • Broken at 25,000' AGL
Temperatures Readings
Current 26°C / 79°F
Dewpoint 18°C / 64°F
Humidity 61%
Altimeter 30.04" Hg
Pressure 1016.4 hPa
Elevation 299
METAR KPTK 191653Z VRB04KT 10SM SCT030TCU BKN250 26/18 A3004 RMK AO2 SLP164 TCU NE T02560183
Observed Flight Rules
Aug-19 @ 16:53 UTC
(19 minutes ago)
VFR
Wind Visibility
Variable at 4 knots 10 miles
Clouds
  • Scattered at 3,000' AGL
  • Broken at 25,000' AGL
Temperature Dewpoint
26°C / 79°F 18°C / 64°F
Humidity Altimeter Pressure
61% 30.04" Hg 1016.4 hPa